Terminal Aerodrome Forecast
Issued by NWS

Home | Current Version | Previous Version | Text Only | Print | Product List | Glossary On
Versions: 1 2 3 4 5 6 7 8 9 10 11 12
336
FTAK31 PAJN 221100
TAFAGY
TAF
PAGY 221140Z 2212/2312 04004KT P6SM SCT140
     FM221900 24006KT P6SM SCT100
     FM222300 21011KT P6SM SCT100
     FM230500 VRB03KT P6SM SCT100
     FM230800 04006KT P6SM BKN100
      AMD LTD TO CLD VIS AND WIND=

USA.gov is the U.S. government's official web portal to all federal, state and local government web resources and services.